Time;durP1;ratioP1;P1;durP2;ratioP2;P2;SDS_P1;SDS_P2;PMS_P1;PMS_P2;Temp;Humidity;BMP_temperature;BMP_pressure;BME280_temperature;BME280_humidity;BME280_pressure;Samples;Min_cycle;Max_cycle;Signal;HPM_P1;HPM_P2
2021/07/01 00:04:22;;;;;;;7.53;6.82;;;;;;;17.65;85.48;99881.38;10353432;28;20455;-60
2021/07/01 00:09:25;;;;;;;11.23;8.27;;;;;;;17.66;84.85;99877.63;10352163;28;20046;-60
2021/07/01 00:14:27;;;;;;;8.23;7.13;;;;;;;17.69;83.83;99886.41;10367231;28;20136;-60
2021/07/01 00:19:29;;;;;;;8.65;6.43;;;;;;;17.58;84.33;99880.41;10323188;28;20579;-60
2021/07/01 00:24:31;;;;;;;7.70;6.45;;;;;;;17.58;84.51;99880.41;10354776;28;20050;-60
2021/07/01 00:29:32;;;;;;;7.38;6.60;;;;;;;17.67;84.09;99879.31;10356609;28;20045;-60
2021/07/01 00:34:34;;;;;;;7.63;6.78;;;;;;;17.43;82.47;99874.94;10344036;28;20062;-61
2021/07/01 00:39:36;;;;;;;7.78;6.22;;;;;;;17.39;83.39;99879.00;10340906;28;20054;-65
2021/07/01 00:44:37;;;;;;;6.32;5.75;;;;;;;17.13;82.88;99879.31;10366211;28;20060;-61
2021/07/01 00:49:39;;;;;;;7.50;5.93;;;;;;;17.13;83.98;99877.44;10338772;28;20058;-60
2021/07/01 00:54:42;;;;;;;6.57;5.85;;;;;;;17.28;83.62;99882.94;10357553;28;20050;-60
2021/07/01 00:59:43;;;;;;;6.63;6.03;;;;;;;17.25;84.14;99875.22;10358172;28;20416;-60
2021/07/01 01:04:45;;;;;;;6.43;5.70;;;;;;;17.30;84.94;99886.28;10358841;28;20514;-60
2021/07/01 01:09:46;;;;;;;7.00;5.00;;;;;;;17.28;83.22;99884.78;10359277;28;20435;-61
2021/07/01 01:14:48;;;;;;;7.82;6.13;;;;;;;17.16;84.30;99892.41;10359120;28;20050;-61
2021/07/01 01:19:49;;;;;;;5.43;4.68;;;;;;;17.10;84.67;99893.13;10354375;28;20050;-60
2021/07/01 01:24:51;;;;;;;4.90;4.50;;;;;;;17.18;85.22;99894.94;10354169;28;20053;-60
2021/07/01 01:29:52;;;;;;;4.78;4.00;;;;;;;17.19;85.05;99897.44;10353894;28;20073;-60
2021/07/01 01:34:54;;;;;;;3.67;3.30;;;;;;;17.19;82.20;99904.66;10343852;28;20569;-60
2021/07/01 01:39:55;;;;;;;3.80;3.03;;;;;;;17.06;82.18;99907.91;10354381;28;20423;-61
2021/07/01 01:44:57;;;;;;;5.75;3.60;;;;;;;17.11;83.45;99890.25;10358057;28;20061;-61
2021/07/01 01:49:58;;;;;;;7.10;2.80;;;;;;;17.19;81.41;99891.19;10329064;28;20046;-60
2021/07/01 01:55:00;;;;;;;3.78;2.53;;;;;;;16.95;81.34;99882.25;10346104;28;20053;-61
2021/07/01 02:00:03;;;;;;;3.05;2.38;;;;;;;16.96;81.79;99887.44;10341495;28;20104;-61
2021/07/01 02:05:06;;;;;;;2.75;1.92;;;;;;;17.07;81.93;99888.91;10357574;28;20046;-60
2021/07/01 02:10:13;;;;;;;2.58;1.42;;;;;;;16.95;80.10;99898.38;10347765;28;20041;-60
2021/07/01 02:15:18;;;;;;;2.13;1.23;;;;;;;16.99;80.97;99899.69;10361269;28;20046;-61
2021/07/01 02:20:22;;;;;;;2.33;1.40;;;;;;;16.96;80.97;99887.44;10345980;28;20049;-60
2021/07/01 02:25:24;;;;;;;1.10;0.90;;;;;;;16.86;80.78;99892.16;10335682;28;20049;-60
2021/07/01 02:30:25;;;;;;;1.63;1.35;;;;;;;16.88;79.63;99894.69;10338497;28;20056;-60
2021/07/01 02:35:27;;;;;;;1.52;1.13;;;;;;;16.85;80.19;99895.84;10348652;28;20061;-61
2021/07/01 02:40:29;;;;;;;3.05;1.67;;;;;;;16.81;79.59;99899.88;10363593;28;20053;-61
2021/07/01 02:45:30;;;;;;;2.92;1.67;;;;;;;16.76;78.90;99907.63;10343583;28;20053;-60
2021/07/01 02:50:32;;;;;;;2.67;2.00;;;;;;;16.76;79.33;99910.31;10352914;28;20064;-61
2021/07/01 02:55:35;;;;;;;3.05;2.20;;;;;;;16.81;78.78;99904.44;10334410;28;20049;-60
2021/07/01 03:00:36;;;;;;;2.42;2.03;;;;;;;16.90;78.11;99911.50;10355919;28;20541;-60
2021/07/01 03:05:38;;;;;;;3.50;2.42;;;;;;;16.69;77.67;99917.41;10345045;28;20046;-61
2021/07/01 03:10:39;;;;;;;5.20;2.95;;;;;;;16.53;78.25;99912.88;10349579;28;20053;-61
2021/07/01 03:15:41;;;;;;;4.38;3.65;;;;;;;16.59;77.04;99915.75;10352156;28;20045;-60
2021/07/01 03:20:43;;;;;;;5.78;4.25;;;;;;;16.53;77.87;99918.25;10357906;28;20104;-60
2021/07/01 03:25:44;;;;;;;5.80;5.20;;;;;;;16.43;77.43;99913.91;10347206;28;20072;-60
2021/07/01 03:30:46;;;;;;;7.18;6.15;;;;;;;16.59;79.06;99913.06;10358509;28;20491;-60
2021/07/01 03:35:48;;;;;;;8.48;7.65;;;;;;;16.57;75.61;99915.09;10362471;28;20060;-65
2021/07/01 03:40:49;;;;;;;9.52;8.35;;;;;;;16.39;77.11;99917.09;10363186;28;20052;-61
2021/07/01 03:45:51;;;;;;;10.93;9.80;;;;;;;16.32;77.08;99910.72;10364310;28;20045;-61
2021/07/01 03:50:52;;;;;;;12.88;9.88;;;;;;;16.33;77.21;99912.41;10357064;28;20042;-60
2021/07/01 03:55:54;;;;;;;11.73;10.52;;;;;;;16.37;76.65;99921.81;10344000;28;20103;-60
2021/07/01 04:00:55;;;;;;;10.02;9.05;;;;;;;16.33;75.79;99923.97;10330556;28;20052;-60
2021/07/01 04:05:57;;;;;;;10.82;9.55;;;;;;;16.37;76.60;99925.34;10330836;28;20484;-60
2021/07/01 04:10:59;;;;;;;10.18;8.45;;;;;;;16.50;75.00;99938.25;10332887;28;20057;-61
2021/07/01 04:16:00;;;;;;;10.57;9.57;;;;;;;16.51;76.73;99944.47;10340593;28;20054;-60
2021/07/01 04:21:02;;;;;;;8.50;7.60;;;;;;;16.65;74.87;99953.66;10350951;28;20058;-61
2021/07/01 04:26:03;;;;;;;8.93;8.02;;;;;;;16.51;76.33;99947.16;10354225;28;20057;-61
2021/07/01 04:31:05;;;;;;;8.15;7.45;;;;;;;16.71;77.47;99948.47;10359306;28;20500;-60
2021/07/01 04:36:06;;;;;;;7.97;6.30;;;;;;;16.77;74.11;99955.00;10331511;28;20057;-60
2021/07/01 04:41:08;;;;;;;8.68;6.05;;;;;;;16.44;74.72;99957.75;10360595;28;20097;-61
2021/07/01 04:46:10;;;;;;;6.60;4.93;;;;;;;16.54;74.97;99952.19;10347542;28;20733;-60
2021/07/01 04:51:11;;;;;;;5.95;4.85;;;;;;;16.43;73.94;99953.38;10354865;28;20060;-60
2021/07/01 04:56:13;;;;;;;6.43;5.32;;;;;;;16.38;74.52;99955.75;10355663;28;20042;-61
2021/07/01 05:01:15;;;;;;;8.05;4.65;;;;;;;16.51;75.25;99958.72;10329263;28;20128;-61
2021/07/01 05:06:16;;;;;;;5.00;4.43;;;;;;;16.36;75.28;99949.69;10359222;28;20059;-61
2021/07/01 05:11:18;;;;;;;5.18;4.35;;;;;;;16.53;74.82;99969.31;10345747;28;20053;-60
2021/07/01 05:16:19;;;;;;;6.43;4.35;;;;;;;16.53;75.10;99967.47;10350564;28;20105;-61
2021/07/01 05:21:25;;;;;;;4.90;4.50;;;;;;;16.64;73.58;99968.97;10353671;28;20547;-61
2021/07/01 05:26:27;;;;;;;5.85;4.43;;;;;;;16.66;76.52;99977.69;10340381;28;20046;-61
2021/07/01 05:31:28;;;;;;;13.55;5.25;;;;;;;16.42;76.33;99981.22;10346552;28;20054;-61
2021/07/01 05:36:30;;;;;;;6.82;4.00;;;;;;;16.66;75.33;99983.06;10348766;28;20048;-60
2021/07/01 05:41:31;;;;;;;4.82;3.88;;;;;;;16.53;73.87;99983.59;10312718;28;20072;-60
2021/07/01 05:46:33;;;;;;;5.20;3.80;;;;;;;16.68;74.42;99990.94;10314559;28;20061;-61
2021/07/01 05:51:36;;;;;;;5.32;3.33;;;;;;;16.55;74.87;99981.56;10299529;28;20500;-61
2021/07/01 05:56:38;;;;;;;3.30;2.67;;;;;;;16.53;73.81;99988.97;10299145;28;20050;-61
2021/07/01 06:01:40;;;;;;;4.57;3.00;;;;;;;16.57;76.15;99989.44;10303664;28;20131;-61
2021/07/01 06:06:48;;;;;;;4.90;3.42;;;;;;;16.76;75.43;99988.28;10307265;28;20050;-61
2021/07/01 06:11:55;;;;;;;4.13;2.40;;;;;;;16.84;74.94;99990.09;10284501;28;20090;-60
2021/07/01 06:17:04;;;;;;;3.75;2.17;;;;;;;16.75;73.57;99982.06;10300818;28;20050;-61
2021/07/01 06:22:07;;;;;;;2.72;2.15;;;;;;;16.75;74.84;99991.97;10302236;28;20579;-61
2021/07/01 06:27:10;;;;;;;3.05;2.28;;;;;;;16.54;75.37;99993.34;10306405;28;20046;-61
2021/07/01 06:32:12;;;;;;;2.95;1.75;;;;;;;16.57;75.99;100010.94;10302517;28;20061;-60
2021/07/01 06:37:15;;;;;;;2.33;1.40;;;;;;;16.53;75.11;100015.84;10298628;28;20577;-61
2021/07/01 06:42:20;;;;;;;1.52;1.38;;;;;;;16.51;75.49;100007.09;10298844;28;20056;-61
2021/07/01 06:47:23;;;;;;;4.10;1.65;;;;;;;16.55;76.95;100019.19;10313198;28;20408;-60
2021/07/01 06:52:25;;;;;;;2.22;1.50;;;;;;;16.67;75.91;100026.91;10313699;28;20062;-61
2021/07/01 06:57:27;;;;;;;5.72;1.60;;;;;;;16.38;76.73;100036.31;10313466;28;20081;-61
2021/07/01 07:02:34;;;;;;;16.90;4.38;;;;;;;16.54;78.37;100039.00;10313735;28;20148;-60
2021/07/01 07:07:45;;;;;;;3.22;1.30;;;;;;;16.71;76.85;100036.28;10315420;28;20050;-62
2021/07/01 07:12:49;;;;;;;14.00;3.58;;;;;;;16.55;75.10;100032.63;10293158;28;20058;-61
2021/07/01 07:17:53;;;;;;;5.05;1.42;;;;;;;16.35;77.59;100036.63;10297166;28;20102;-61
2021/07/01 07:22:56;;;;;;;2.55;1.50;;;;;;;16.63;76.24;100031.78;10307688;28;20081;-61
2021/07/01 07:28:09;;;;;;;3.60;2.37;;;;;;;16.88;74.55;100032.63;10308280;28;20097;-62
2021/07/01 07:33:11;;;;;;;5.27;3.07;;;;;;;17.23;73.26;100040.47;10291992;28;20077;-60
2021/07/01 07:38:13;;;;;;;3.95;2.33;;;;;;;17.37;72.11;100046.97;10308191;28;20057;-60
2021/07/01 07:43:15;;;;;;;2.60;2.38;;;;;;;17.46;71.73;100048.66;10309471;28;20070;-60
2021/07/01 07:48:17;;;;;;;1.75;1.65;;;;;;;17.50;70.82;100041.88;10290204;28;20049;-61
2021/07/01 07:53:30;;;;;;;5.00;2.00;;;;;;;17.33;71.65;100043.81;10289231;28;22250;-61
2021/07/01 07:58:35;;;;;;;4.93;2.65;;;;;;;17.57;71.65;100045.56;10305819;28;20411;-61
2021/07/01 08:03:39;;;;;;;3.88;1.77;;;;;;;17.59;71.72;100043.53;10304944;28;20505;-60
2021/07/01 08:08:43;;;;;;;2.88;2.00;;;;;;;17.74;68.79;100043.63;10301735;28;20078;-61
2021/07/01 08:13:54;;;;;;;3.47;1.80;;;;;;;17.88;68.05;100046.59;10291702;28;20164;-60
2021/07/01 08:18:58;;;;;;;3.97;2.88;;;;;;;17.87;68.68;100056.53;10308319;28;24626;-61
2021/07/01 08:24:01;;;;;;;3.42;3.10;;;;;;;17.69;67.41;100047.88;10304147;28;20403;-61
2021/07/01 08:29:04;;;;;;;4.18;2.70;;;;;;;17.71;68.73;100056.63;10306569;28;20058;-61
2021/07/01 08:34:06;;;;;;;10.07;3.53;;;;;;;17.72;69.52;100052.91;10292137;28;20058;-61
2021/07/01 08:39:08;;;;;;;3.33;3.00;;;;;;;17.86;69.54;100057.53;10308820;28;20080;-61
2021/07/01 08:44:21;;;;;;;4.82;2.95;;;;;;;17.92;68.11;100053.34;10315205;28;20065;-61
2021/07/01 08:49:37;;;;;;;3.33;3.03;;;;;;;17.90;66.74;100034.69;10310709;28;20544;-61
2021/07/01 08:54:43;;;;;;;2.65;1.80;;;;;;;17.79;68.52;100056.56;10303769;28;20064;-61
2021/07/01 08:59:54;;;;;;;3.78;2.08;;;;;;;18.06;68.65;100054.44;10310175;28;20079;-59
2021/07/01 09:04:57;;;;;;;2.60;1.88;;;;;;;18.11;66.75;100058.28;10302617;28;20392;-57
2021/07/01 09:10:01;;;;;;;3.67;1.33;;;;;;;18.01;66.24;100053.16;10307410;28;20046;-56
2021/07/01 09:15:10;;;;;;;3.58;1.52;;;;;;;17.99;65.98;100059.72;10306127;28;20065;-59
2021/07/01 09:20:13;;;;;;;2.38;1.50;;;;;;;17.87;66.64;100051.16;10306593;28;20042;-62
2021/07/01 09:25:16;;;;;;;2.73;1.30;;;;;;;17.97;66.32;100043.72;10304674;28;20508;-62
2021/07/01 09:30:25;;;;;;;1.50;0.90;;;;;;;18.18;65.74;100066.50;10302171;28;20939;-63
2021/07/01 09:35:30;;;;;;;1.70;0.90;;;;;;;18.04;68.07;100073.47;10265371;28;20069;-62
2021/07/01 09:40:33;;;;;;;20.70;4.13;;;;;;;17.87;66.91;100067.31;10283112;28;20054;-62
2021/07/01 09:45:36;;;;;;;3.17;0.90;;;;;;;17.81;66.45;100066.16;10300044;28;20054;-63
2021/07/01 09:50:48;;;;;;;6.13;1.30;;;;;;;17.76;68.89;100062.31;10293796;28;20053;-64
2021/07/01 09:55:52;;;;;;;2.95;0.73;;;;;;;18.04;67.17;100061.88;10307823;28;20042;-62
2021/07/01 10:00:54;;;;;;;2.05;0.65;;;;;;;18.25;68.24;100062.06;10281457;28;20524;-60
2021/07/01 10:05:55;;;;;;;0.90;0.40;;;;;;;18.17;64.74;100062.13;10310119;28;20061;-61
2021/07/01 10:10:57;;;;;;;1.45;0.50;;;;;;;18.12;65.97;100072.59;10303705;28;20057;-61
2021/07/01 10:15:59;;;;;;;1.95;0.20;;;;;;;17.52;69.71;100076.69;10308185;28;20403;-66
2021/07/01 10:21:01;;;;;;;1.33;0.52;;;;;;;17.09;70.64;100077.81;10307991;28;20141;-62
2021/07/01 10:26:12;;;;;;;0.60;0.20;;;;;;;16.96;71.00;100078.34;10305235;28;20605;-63
2021/07/01 10:31:14;;;;;;;1.08;0.20;;;;;;;17.42;69.77;100084.97;10308991;28;20042;-63
2021/07/01 10:36:17;;;;;;;0.93;0.32;;;;;;;17.31;69.63;100076.25;10314525;28;20480;-62
2021/07/01 10:41:31;;;;;;;1.00;0.20;;;;;;;17.43;68.65;100081.25;10302407;28;20061;-65
2021/07/01 10:46:40;;;;;;;;;;;;;;;17.36;68.28;100078.44;10295946;28;20053;-62
2021/07/01 10:51:57;;;;;;;1.70;1.33;;;;;;;17.55;66.35;100090.66;10294579;28;19953;-62
2021/07/01 10:57:09;;;;;;;3.13;2.25;;;;;;;17.56;67.10;100091.50;10298459;28;20068;-63
2021/07/01 11:02:21;;;;;;;4.95;2.67;;;;;;;17.70;65.36;100092.63;10295554;28;20046;-63
2021/07/01 11:07:24;;;;;;;4.47;2.92;;;;;;;17.49;65.71;100097.56;10313663;28;20051;-63
2021/07/01 11:12:27;;;;;;;2.85;2.65;;;;;;;17.83;64.24;100093.75;10315034;28;20053;-63
2021/07/01 11:17:36;;;;;;;3.05;2.60;;;;;;;18.07;63.78;100086.59;10316555;28;20077;-65
2021/07/01 11:22:47;;;;;;;3.85;2.60;;;;;;;17.90;63.33;100087.69;10287477;28;20479;-61
2021/07/01 11:27:49;;;;;;;4.32;3.50;;;;;;;17.90;64.13;100093.91;10302479;28;20042;-61
2021/07/01 11:33:12;;;;;;;3.83;3.10;;;;;;;18.05;63.41;100106.66;10291714;28;20672;-62
2021/07/01 11:38:31;;;;;;;4.43;3.27;;;;;;;17.67;62.75;100101.91;10315652;28;20416;-62
2021/07/01 11:43:36;;;;;;;4.35;3.95;;;;;;;17.76;62.60;100102.69;10332481;23;20068;-59
2021/07/01 11:48:38;;;;;;;4.10;3.70;;;;;;;17.77;62.98;100105.19;10340093;28;20046;-61
2021/07/01 11:53:40;;;;;;;4.85;3.83;;;;;;;17.89;62.78;100107.53;10316777;28;20093;-60
2021/07/01 11:58:43;;;;;;;7.93;4.40;;;;;;;18.07;62.59;100110.00;10318260;28;20123;-61
2021/07/01 12:03:47;;;;;;;4.55;3.80;;;;;;;17.79;61.71;100107.72;10319897;28;20053;-61
2021/07/01 12:08:48;;;;;;;;;;;;;;;18.06;63.74;100108.31;10326452;28;20061;-61
2021/07/01 12:13:50;;;;;;;3.40;2.92;;;;;;;18.41;60.66;100108.81;10320097;28;19936;-61
2021/07/01 12:18:57;;;;;;;5.40;3.45;;;;;;;18.31;60.12;100117.94;10320096;28;20595;-61
2021/07/01 12:24:03;;;;;;;4.53;3.25;;;;;;;18.20;59.44;100116.47;10318039;28;20068;-61
2021/07/01 12:29:44;;;;;;;4.82;4.05;;;;;;;18.01;59.88;100115.09;10320351;28;20817;-61
2021/07/01 12:34:46;;;;;;;107.47;12.77;;;;;;;17.85;62.14;100109.75;10314915;28;20046;-60
2021/07/01 12:39:48;;;;;;;7.65;4.35;;;;;;;17.82;62.27;100104.69;10318830;28;20507;-60
2021/07/01 12:44:51;;;;;;;5.72;4.10;;;;;;;18.00;63.06;100117.94;10322001;28;20399;-61
2021/07/01 12:50:03;;;;;;;4.60;4.17;;;;;;;18.00;62.52;100116.09;10318928;28;20050;-61
2021/07/01 12:55:07;;;;;;;5.60;4.63;;;;;;;17.95;62.60;100126.53;10321750;28;20289;-61
2021/07/01 13:00:09;;;;;;;6.90;3.83;;;;;;;18.20;62.94;100121.03;10321153;28;20057;-61
2021/07/01 13:05:15;;;;;;;5.20;4.18;;;;;;;18.58;63.01;100123.84;10312300;28;20053;-61
2021/07/01 13:10:18;;;;;;;8.15;4.25;;;;;;;18.72;62.01;100125.75;10311299;28;20050;-61
2021/07/01 13:15:21;;;;;;;5.55;4.03;;;;;;;18.45;61.34;100123.56;10316036;28;20053;-60
2021/07/01 13:20:22;;;;;;;4.03;3.30;;;;;;;18.57;62.49;100110.53;10318029;28;20053;-65
2021/07/01 13:25:26;;;;;;;6.45;4.22;;;;;;;18.63;62.83;100116.06;10320579;28;20060;-61
2021/07/01 13:30:34;;;;;;;;;;;;;;;18.37;61.74;100130.72;10322946;28;20054;-60
2021/07/01 13:35:42;;;;;;;3.30;3.00;;;;;;;18.05;62.74;100129.03;10321037;28;19929;-60
2021/07/01 13:40:46;;;;;;;4.65;3.88;;;;;;;17.72;63.32;100137.19;10320860;28;20057;-63
2021/07/01 13:45:51;;;;;;;6.30;4.20;;;;;;;17.70;65.24;100147.31;10328078;28;20076;-60
2021/07/01 13:50:55;;;;;;;3.95;3.33;;;;;;;17.86;64.64;100146.41;10323818;28;20058;-61
2021/07/01 13:56:02;;;;;;;5.30;3.47;;;;;;;17.82;64.44;100145.09;10327584;28;20046;-61
2021/07/01 14:01:06;;;;;;;5.70;3.50;;;;;;;17.84;65.90;100145.75;10323332;28;22469;-60
2021/07/01 14:06:10;;;;;;;3.90;3.25;;;;;;;18.04;63.60;100142.66;10325188;28;20713;-61
2021/07/01 14:11:24;;;;;;;4.25;3.60;;;;;;;18.00;63.46;100144.88;10331960;28;20125;-61
2021/07/01 14:16:34;;;;;;;4.45;3.10;;;;;;;18.11;63.72;100159.81;10326511;28;20359;-61
2021/07/01 14:21:41;;;;;;;4.60;3.00;;;;;;;17.98;62.93;100150.41;10328490;28;20133;-61
2021/07/01 14:26:48;;;;;;;4.50;2.85;;;;;;;18.10;64.20;100147.34;10330378;28;20538;-61
2021/07/01 14:31:52;;;;;;;3.75;3.08;;;;;;;18.07;62.63;100142.31;10327845;28;20046;-60
2021/07/01 14:36:56;;;;;;;5.07;3.05;;;;;;;18.04;61.74;100143.50;10322886;28;20666;-60
2021/07/01 14:42:02;;;;;;;4.07;3.25;;;;;;;17.98;63.64;100144.19;10327521;28;20064;-60
2021/07/01 14:47:17;;;;;;;3.25;2.83;;;;;;;18.45;63.66;100146.00;10328232;28;20050;-61
2021/07/01 14:52:21;;;;;;;3.75;2.60;;;;;;;18.70;61.50;100143.97;10327376;28;20042;-61
2021/07/01 14:57:32;;;;;;;3.42;2.60;;;;;;;18.40;61.74;100142.16;10326197;28;20058;-61
2021/07/01 15:02:39;;;;;;;5.40;3.10;;;;;;;18.38;62.74;100153.94;10326833;28;20042;-61
2021/07/01 15:07:48;;;;;;;5.07;2.85;;;;;;;18.01;62.35;100150.09;10325281;28;20050;-61
2021/07/01 15:12:57;;;;;;;4.72;2.80;;;;;;;17.97;63.64;100148.75;10329799;28;20046;-61
2021/07/01 15:17:59;;;;;;;5.38;2.45;;;;;;;18.19;63.83;100147.16;10326555;28;20042;-61
2021/07/01 15:23:02;;;;;;;3.72;2.53;;;;;;;18.38;63.12;100156.63;10326525;28;20046;-61
2021/07/01 15:28:04;;;;;;;2.88;2.30;;;;;;;18.37;63.00;100160.38;10326619;28;20062;-64
2021/07/01 15:33:05;;;;;;;4.65;2.83;;;;;;;18.37;61.96;100154.97;10327899;28;20049;-61
2021/07/01 15:38:07;;;;;;;2.72;2.13;;;;;;;18.34;61.75;100166.06;10314918;28;20052;-62
2021/07/01 15:43:12;;;;;;;4.07;2.85;;;;;;;18.21;61.55;100171.22;10316168;28;20057;-61
2021/07/01 15:48:14;;;;;;;3.05;2.25;;;;;;;18.30;63.46;100172.84;10319622;28;20056;-61
2021/07/01 15:53:15;;;;;;;3.60;2.40;;;;;;;18.35;62.31;100170.47;10317624;28;20058;-61
2021/07/01 15:58:17;;;;;;;3.85;2.85;;;;;;;18.25;64.01;100177.91;10315091;28;20534;-60
2021/07/01 16:03:24;;;;;;;3.35;2.45;;;;;;;18.28;62.61;100169.47;10318873;28;20637;-59
2021/07/01 16:08:26;;;;;;;5.03;2.47;;;;;;;18.35;63.56;100167.75;10312127;28;20057;-61
2021/07/01 16:13:28;;;;;;;4.63;3.00;;;;;;;18.49;62.92;100165.34;10315798;28;20549;-62
2021/07/01 16:18:30;;;;;;;5.43;3.38;;;;;;;18.33;62.69;100180.59;10312765;28;21528;-60
2021/07/01 16:23:32;;;;;;;4.40;4.00;;;;;;;18.50;62.12;100172.41;10316566;28;20058;-60
2021/07/01 16:28:33;;;;;;;4.90;4.40;;;;;;;18.61;62.83;100172.00;10314712;28;20061;-61
2021/07/01 16:33:35;;;;;;;5.28;3.90;;;;;;;18.57;62.67;100175.22;10317695;28;20537;-61
2021/07/01 16:38:38;;;;;;;7.07;4.13;;;;;;;18.36;62.04;100182.94;10316752;28;20061;-61
2021/07/01 16:43:40;;;;;;;4.60;4.05;;;;;;;18.19;60.83;100179.47;10313822;28;20057;-61
2021/07/01 16:48:53;;;;;;;4.75;3.80;;;;;;;17.85;63.43;100177.03;10318235;28;20064;-60
2021/07/01 16:53:55;;;;;;;7.15;3.85;;;;;;;17.83;61.28;100182.59;10314861;28;20062;-65
2021/07/01 16:59:01;;;;;;;5.50;4.10;;;;;;;17.70;61.87;100178.75;10309096;28;20057;-61
2021/07/01 17:04:03;;;;;;;4.85;4.13;;;;;;;17.61;62.15;100178.78;10317687;28;20056;-60
2021/07/01 17:09:04;;;;;;;5.72;3.55;;;;;;;17.59;62.77;100188.84;10312821;28;20065;-61
2021/07/01 17:14:07;;;;;;;5.05;3.72;;;;;;;17.72;63.13;100188.34;10316684;28;20506;-61
2021/07/01 17:19:12;;;;;;;7.72;3.05;;;;;;;17.66;61.78;100189.84;10312004;28;20057;-62
2021/07/01 17:24:15;;;;;;;5.22;3.50;;;;;;;17.52;62.02;100187.88;10312864;28;20054;-61
2021/07/01 17:29:18;;;;;;;4.47;3.63;;;;;;;17.63;62.97;100184.81;10314271;28;20057;-61
2021/07/01 17:34:21;;;;;;;5.38;3.15;;;;;;;17.66;62.12;100187.16;10316708;28;20050;-61
2021/07/01 17:39:26;;;;;;;4.38;3.65;;;;;;;17.62;62.59;100188.50;10318332;28;20805;-62
2021/07/01 17:44:31;;;;;;;4.47;3.65;;;;;;;17.73;63.07;100194.56;10316453;28;20057;-60
2021/07/01 17:49:33;;;;;;;6.07;4.30;;;;;;;17.90;62.93;100201.63;10313950;28;20448;-61
2021/07/01 17:54:36;;;;;;;6.57;4.10;;;;;;;17.86;62.88;100189.47;10313239;28;20050;-62
2021/07/01 17:59:37;;;;;;;5.70;3.50;;;;;;;17.87;62.48;100195.72;10312530;28;20072;-60
2021/07/01 18:04:40;;;;;;;8.68;3.45;;;;;;;17.59;61.88;100204.16;10319818;28;20057;-60
2021/07/01 18:09:44;;;;;;;6.10;3.97;;;;;;;17.36;63.12;100204.88;10309518;28;20058;-61
2021/07/01 18:14:47;;;;;;;4.43;4.00;;;;;;;17.43;63.21;100211.25;10322746;28;20050;-61
2021/07/01 18:19:49;;;;;;;6.05;3.75;;;;;;;17.36;64.43;100214.81;10313147;28;20522;-60
2021/07/01 18:24:54;;;;;;;5.47;4.22;;;;;;;17.52;64.23;100205.84;10316260;28;20050;-61
2021/07/01 18:29:56;;;;;;;6.63;4.03;;;;;;;17.06;65.41;100198.31;10315575;28;20495;-60
2021/07/01 18:34:57;;;;;;;4.07;3.72;;;;;;;16.98;65.49;100201.84;10323447;28;20557;-60
2021/07/01 18:40:00;;;;;;;5.80;4.10;;;;;;;17.26;66.75;100209.56;10320847;28;20072;-60
2021/07/01 18:45:02;;;;;;;5.13;4.00;;;;;;;17.41;65.85;100207.88;10315089;28;20057;-60
2021/07/01 18:50:05;;;;;;;4.15;3.55;;;;;;;17.51;65.16;100213.09;10319226;28;20049;-60
2021/07/01 18:55:07;;;;;;;4.20;3.78;;;;;;;17.59;64.95;100210.38;10317140;28;20053;-60
2021/07/01 19:00:10;;;;;;;4.97;3.92;;;;;;;17.59;64.38;100210.38;10325730;28;20060;-61
2021/07/01 19:05:13;;;;;;;6.97;4.47;;;;;;;17.60;64.88;100209.38;10321777;28;20064;-61
2021/07/01 19:10:14;;;;;;;5.45;3.92;;;;;;;17.43;65.14;100213.94;10314900;28;20050;-60
2021/07/01 19:15:16;;;;;;;5.55;3.83;;;;;;;17.54;66.37;100228.09;10320305;28;20042;-59
2021/07/01 19:20:18;;;;;;;4.97;4.45;;;;;;;17.61;65.25;100232.59;10323264;28;20518;-61
2021/07/01 19:25:20;;;;;;;5.70;4.70;;;;;;;17.35;65.79;100223.88;10324086;28;20418;-61
2021/07/01 19:30:21;;;;;;;5.90;4.82;;;;;;;17.53;67.00;100237.16;10315441;28;20057;-60
2021/07/01 19:35:23;;;;;;;5.60;4.28;;;;;;;17.51;66.52;100240.00;10328652;28;20058;-61
2021/07/01 19:40:25;;;;;;;6.30;4.13;;;;;;;17.46;66.77;100227.06;10319617;28;20495;-61
2021/07/01 19:45:27;;;;;;;4.95;4.15;;;;;;;17.57;65.27;100239.34;10320014;28;20046;-61
2021/07/01 19:50:28;;;;;;;5.50;4.00;;;;;;;17.48;65.61;100243.03;10317857;28;20077;-61
2021/07/01 19:55:31;;;;;;;5.55;4.20;;;;;;;17.39;64.75;100246.75;10321324;28;20476;-61
2021/07/01 20:00:33;;;;;;;7.03;4.30;;;;;;;17.31;64.87;100250.28;10318054;28;20452;-60
2021/07/01 20:05:35;;;;;;;5.85;3.80;;;;;;;17.16;63.52;100258.16;10320099;28;20068;-62
2021/07/01 20:10:37;;;;;;;4.47;3.10;;;;;;;17.10;64.11;100264.22;10316348;28;20050;-62
2021/07/01 20:15:39;;;;;;;7.50;4.28;;;;;;;17.18;65.00;100255.31;10320041;28;20411;-63
2021/07/01 20:20:41;;;;;;;4.50;4.05;;;;;;;17.23;64.95;100258.34;10322634;28;20050;-61
2021/07/01 20:25:42;;;;;;;4.70;3.92;;;;;;;17.37;65.07;100262.19;10338030;28;20503;-61
2021/07/01 20:30:44;;;;;;;5.93;3.58;;;;;;;17.33;64.65;100264.41;10319825;28;20050;-61
2021/07/01 20:35:46;;;;;;;5.65;3.60;;;;;;;17.08;64.26;100266.22;10342481;28;20045;-61
2021/07/01 20:40:47;;;;;;;4.85;3.55;;;;;;;17.23;64.67;100271.78;10334855;28;20419;-61
2021/07/01 20:45:49;;;;;;;6.50;3.97;;;;;;;17.12;65.15;100278.31;10349161;28;20495;-61
2021/07/01 20:50:50;;;;;;;4.53;3.95;;;;;;;17.22;64.29;100281.72;10337115;28;20522;-61
2021/07/01 20:55:52;;;;;;;5.30;3.60;;;;;;;17.08;65.34;100283.22;10338084;28;20054;-62
2021/07/01 21:00:58;;;;;;;5.68;3.85;;;;;;;17.27;65.31;100268.59;10340316;28;20295;-61
2021/07/01 21:06:02;;;;;;;4.50;3.70;;;;;;;17.22;64.93;100268.25;10342361;28;20046;-61
2021/07/01 21:11:03;;;;;;;;;;;;;;;17.34;64.20;100271.47;10336672;28;20042;-61
2021/07/01 21:16:05;;;;;;;4.57;3.40;;;;;;;17.33;65.00;100277.03;10344170;28;19925;-62
2021/07/01 21:21:08;;;;;;;7.28;4.95;;;;;;;17.31;64.31;100267.25;10335616;28;20054;-62
2021/07/01 21:26:10;;;;;;;4.75;4.10;;;;;;;17.27;65.17;100271.28;10336842;28;20503;-62
2021/07/01 21:31:12;;;;;;;5.22;4.25;;;;;;;17.18;63.72;100271.44;10341478;28;20050;-60
2021/07/01 21:36:17;;;;;;;4.20;3.63;;;;;;;17.16;64.69;100278.81;10338521;28;20037;-60
2021/07/01 21:41:21;;;;;;;6.72;3.83;;;;;;;17.11;64.36;100274.81;10343647;28;20201;-62
2021/07/01 21:46:24;;;;;;;5.72;4.15;;;;;;;17.15;63.88;100272.63;10337912;28;20056;-62
2021/07/01 21:51:26;;;;;;;9.30;4.97;;;;;;;17.17;65.14;100280.53;10328629;28;20068;-62
2021/07/01 21:56:30;;;;;;;4.93;4.03;;;;;;;16.98;65.55;100270.91;10342915;28;20057;-61
2021/07/01 22:01:32;;;;;;;4.97;4.05;;;;;;;17.14;65.52;100276.31;10338187;28;20587;-62
2021/07/01 22:06:34;;;;;;;4.93;3.75;;;;;;;17.02;65.18;100272.25;10340752;28;20127;-61
2021/07/01 22:11:38;;;;;;;4.80;3.50;;;;;;;17.09;64.65;100274.13;10350605;28;20065;-61
2021/07/01 22:16:41;;;;;;;4.75;4.15;;;;;;;17.00;66.31;100268.91;10350372;28;20046;-61
2021/07/01 22:21:43;;;;;;;6.80;4.65;;;;;;;17.20;65.31;100277.50;10343452;28;20050;-61
2021/07/01 22:26:45;;;;;;;6.75;4.53;;;;;;;17.15;66.22;100278.00;10354510;28;20451;-62
2021/07/01 22:31:47;;;;;;;5.57;4.43;;;;;;;17.15;66.30;100278.00;10346815;28;20419;-62
2021/07/01 22:36:49;;;;;;;6.72;4.55;;;;;;;16.93;66.74;100272.25;10342404;28;20152;-65
2021/07/01 22:41:51;;;;;;;6.13;4.18;;;;;;;16.86;67.55;100273.88;10336608;28;20515;-62
2021/07/01 22:46:53;;;;;;;5.68;4.40;;;;;;;16.99;68.20;100268.03;10345907;28;20050;-62
2021/07/01 22:51:54;;;;;;;8.05;4.70;;;;;;;16.91;67.94;100265.34;10343289;28;20049;-61
2021/07/01 22:56:56;;;;;;;5.50;4.60;;;;;;;16.86;67.68;100273.88;10344736;28;20053;-62
2021/07/01 23:01:57;;;;;;;4.85;4.35;;;;;;;16.65;68.05;100266.25;10353108;28;20049;-61
2021/07/01 23:06:59;;;;;;;7.57;5.30;;;;;;;16.54;69.64;100267.41;10353174;28;20133;-61
2021/07/01 23:12:01;;;;;;;6.55;4.93;;;;;;;16.70;68.89;100265.75;10349535;28;20521;-62
2021/07/01 23:17:02;;;;;;;8.25;4.85;;;;;;;16.85;69.91;100266.81;10351238;28;20042;-61
2021/07/01 23:22:04;;;;;;;5.45;4.95;;;;;;;16.82;68.99;100264.44;10349681;28;20050;-61